sensor_id;sensor_type;location;lat;lon;timestamp;pressure;altitude;pressure_sealevel;temperature;humidity
9141;BME280;46330;50.822;7.126;2023-04-27T00:02:34;101239.00;;;7.34;70.73
9141;BME280;46330;50.822;7.126;2023-04-27T00:05:04;101242.44;;;7.38;68.59
9141;BME280;46330;50.822;7.126;2023-04-27T00:07:32;101233.81;;;7.42;67.90
9141;BME280;46330;50.822;7.126;2023-04-27T00:10:00;101242.44;;;7.35;65.46
9141;BME280;46330;50.822;7.126;2023-04-27T00:12:28;101240.72;;;7.34;65.93
9141;BME280;46330;50.822;7.126;2023-04-27T00:14:56;101244.19;;;7.28;67.96
9141;BME280;46330;50.822;7.126;2023-04-27T00:17:25;101244.19;;;7.31;69.49
9141;BME280;46330;50.822;7.126;2023-04-27T00:19:53;101246.81;;;7.34;69.31
9141;BME280;46330;50.822;7.126;2023-04-27T00:22:21;101247.66;;;7.35;68.44
9141;BME280;46330;50.822;7.126;2023-04-27T00:24:49;101247.69;;;7.39;68.66
9141;BME280;46330;50.822;7.126;2023-04-27T00:27:16;101249.44;;;7.45;68.51
9141;BME280;46330;50.822;7.126;2023-04-27T00:29:45;101248.56;;;7.44;67.78
9141;BME280;46330;50.822;7.126;2023-04-27T00:32:12;101255.50;;;7.41;68.57
9141;BME280;46330;50.822;7.126;2023-04-27T00:34:42;101244.19;;;7.31;68.57
9141;BME280;46330;50.822;7.126;2023-04-27T00:37:11;101255.41;;;7.26;69.16
9141;BME280;46330;50.822;7.126;2023-04-27T00:39:39;101254.59;;;7.25;67.55
9141;BME280;46330;50.822;7.126;2023-04-27T00:42:07;101259.75;;;7.21;65.73
9141;BME280;46330;50.822;7.126;2023-04-27T00:44:39;101262.31;;;7.19;64.11
9141;BME280;46330;50.822;7.126;2023-04-27T00:47:08;101255.41;;;7.20;64.60
9141;BME280;46330;50.822;7.126;2023-04-27T00:49:38;101258.84;;;7.17;64.04
9141;BME280;46330;50.822;7.126;2023-04-27T00:52:07;101259.75;;;7.24;65.05
9141;BME280;46330;50.822;7.126;2023-04-27T00:54:35;101266.72;;;7.25;66.73
9141;BME280;46330;50.822;7.126;2023-04-27T00:57:03;101256.28;;;7.26;67.75
9141;BME280;46330;50.822;7.126;2023-04-27T00:59:31;101258.91;;;7.28;67.18
9141;BME280;46330;50.822;7.126;2023-04-27T01:02:00;101267.59;;;7.28;65.71
9141;BME280;46330;50.822;7.126;2023-04-27T01:04:28;101268.44;;;7.32;66.95
9141;BME280;46330;50.822;7.126;2023-04-27T01:06:58;101261.50;;;7.25;65.50
9141;BME280;46330;50.822;7.126;2023-04-27T01:09:27;101264.09;;;7.29;69.77
9141;BME280;46330;50.822;7.126;2023-04-27T01:11:55;101261.50;;;7.29;68.72
9141;BME280;46330;50.822;7.126;2023-04-27T01:14:23;101263.22;;;7.29;67.29
9141;BME280;46330;50.822;7.126;2023-04-27T01:16:51;101261.50;;;7.29;68.16
9141;BME280;46330;50.822;7.126;2023-04-27T01:19:20;101258.91;;;7.28;69.44
9141;BME280;46330;50.822;7.126;2023-04-27T01:21:49;101254.56;;;7.24;69.27
9141;BME280;46330;50.822;7.126;2023-04-27T01:24:19;101250.19;;;7.18;70.61
9141;BME280;46330;50.822;7.126;2023-04-27T01:26:47;101252.78;;;7.17;70.30
9141;BME280;46330;50.822;7.126;2023-04-27T01:29:17;101246.69;;;7.09;70.41
9141;BME280;46330;50.822;7.126;2023-04-27T01:31:45;101253.50;;;6.88;70.47
9141;BME280;46330;50.822;7.126;2023-04-27T01:34:14;101263.84;;;6.76;70.76
9141;BME280;46330;50.822;7.126;2023-04-27T01:36:46;101256.88;;;6.69;70.68
9141;BME280;46330;50.822;7.126;2023-04-27T01:39:14;101265.53;;;6.73;71.26
9141;BME280;46330;50.822;7.126;2023-04-27T01:41:43;101267.31;;;6.72;71.53
9141;BME280;46330;50.822;7.126;2023-04-27T01:44:11;101258.59;;;6.66;69.36
9141;BME280;46330;50.822;7.126;2023-04-27T01:46:39;101256.03;;;6.72;71.20
9141;BME280;46330;50.822;7.126;2023-04-27T01:49:07;101249.97;;;6.76;69.50
9141;BME280;46330;50.822;7.126;2023-04-27T01:51:35;101254.22;;;6.63;69.66
9141;BME280;46330;50.822;7.126;2023-04-27T01:54:03;101262.91;;;6.67;70.78
9141;BME280;46330;50.822;7.126;2023-04-27T01:56:31;101262.06;;;6.68;71.00
9141;BME280;46330;50.822;7.126;2023-04-27T01:59:01;101271.53;;;6.57;71.41
9141;BME280;46330;50.822;7.126;2023-04-27T02:01:29;101278.50;;;6.65;71.01
9141;BME280;46330;50.822;7.126;2023-04-27T02:03:57;101269.88;;;6.66;71.50
9141;BME280;46330;50.822;7.126;2023-04-27T02:06:28;101264.66;;;6.66;71.70
9141;BME280;46330;50.822;7.126;2023-04-27T02:08:55;101271.56;;;6.67;72.76
9141;BME280;46330;50.822;7.126;2023-04-27T02:11:23;101258.56;;;6.60;71.71
9141;BME280;46330;50.822;7.126;2023-04-27T02:13:53;101252.47;;;6.59;73.10
9141;BME280;46330;50.822;7.126;2023-04-27T02:16:30;101266.28;;;6.52;71.84
9141;BME280;46330;50.822;7.126;2023-04-27T02:18:59;101267.09;;;6.45;72.81
9141;BME280;46330;50.822;7.126;2023-04-27T02:21:28;101270.56;;;6.44;72.89
9141;BME280;46330;50.822;7.126;2023-04-27T02:23:56;101267.91;;;6.38;73.33
9141;BME280;46330;50.822;7.126;2023-04-27T02:26:24;101267.88;;;6.36;74.50
9141;BME280;46330;50.822;7.126;2023-04-27T02:28:56;101265.28;;;6.32;75.80
9141;BME280;46330;50.822;7.126;2023-04-27T02:31:24;101267.00;;;6.33;74.81
9141;BME280;46330;50.822;7.126;2023-04-27T02:33:53;101274.75;;;6.25;75.29
9141;BME280;46330;50.822;7.126;2023-04-27T02:36:24;101275.56;;;6.23;75.39
9141;BME280;46330;50.822;7.126;2023-04-27T02:38:54;101272.09;;;6.21;77.24
9141;BME280;46330;50.822;7.126;2023-04-27T02:41:22;101276.47;;;6.25;77.06
9141;BME280;46330;50.822;7.126;2023-04-27T02:43:53;101277.31;;;6.24;76.43
9141;BME280;46330;50.822;7.126;2023-04-27T02:46:21;101271.25;;;6.22;77.76
9141;BME280;46330;50.822;7.126;2023-04-27T02:48:49;101274.69;;;6.21;77.14
9141;BME280;46330;50.822;7.126;2023-04-27T02:51:18;101269.50;;;6.19;76.96
9141;BME280;46330;50.822;7.126;2023-04-27T02:53:46;101271.28;;;6.25;77.44
9141;BME280;46330;50.822;7.126;2023-04-27T02:56:13;101275.56;;;6.23;76.28
9141;BME280;46330;50.822;7.126;2023-04-27T02:58:42;101248.78;;;6.28;76.53
9141;BME280;46330;50.822;7.126;2023-04-27T03:01:10;101260.94;;;6.31;76.19
9141;BME280;46330;50.822;7.126;2023-04-27T03:03:38;101254.84;;;6.27;73.52
9141;BME280;46330;50.822;7.126;2023-04-27T03:06:06;101260.88;;;6.26;71.04
9141;BME280;46330;50.822;7.126;2023-04-27T03:08:35;101256.59;;;6.31;73.56
9141;BME280;46330;50.822;7.126;2023-04-27T03:11:03;101251.44;;;6.34;71.54
9141;BME280;46330;50.822;7.126;2023-04-27T03:13:31;101253.16;;;6.38;70.78
9141;BME280;46330;50.822;7.126;2023-04-27T03:16:08;101236.72;;;6.36;70.21
9141;BME280;46330;50.822;7.126;2023-04-27T03:18:37;101253.97;;;6.25;70.12
9141;BME280;46330;50.822;7.126;2023-04-27T03:21:07;101250.50;;;6.29;70.13
9141;BME280;46330;50.822;7.126;2023-04-27T03:23:37;101253.06;;;6.22;70.49
9141;BME280;46330;50.822;7.126;2023-04-27T03:26:05;101260.03;;;6.27;70.46
9141;BME280;46330;50.822;7.126;2023-04-27T03:28:34;101257.38;;;6.23;70.35
9141;BME280;46330;50.822;7.126;2023-04-27T03:31:04;101259.19;;;6.30;71.47
9141;BME280;46330;50.822;7.126;2023-04-27T03:33:33;101262.66;;;6.33;72.01
9141;BME280;46330;50.822;7.126;2023-04-27T03:36:02;101252.22;;;6.27;71.12
9141;BME280;46330;50.822;7.126;2023-04-27T03:38:32;101267.84;;;6.29;70.72
9141;BME280;46330;50.822;7.126;2023-04-27T03:41:01;101260.88;;;6.25;70.34
9141;BME280;46330;50.822;7.126;2023-04-27T03:43:29;101260.91;;;6.29;71.25
9141;BME280;46330;50.822;7.126;2023-04-27T03:45:57;101261.72;;;6.24;73.49
9141;BME280;46330;50.822;7.126;2023-04-27T03:48:25;101258.22;;;6.16;74.48
9141;BME280;46330;50.822;7.126;2023-04-27T03:50:54;101261.69;;;6.16;74.40
9141;BME280;46330;50.822;7.126;2023-04-27T03:53:22;101255.59;;;6.17;73.79
9141;BME280;46330;50.822;7.126;2023-04-27T03:55:50;101258.19;;;6.17;75.17
9141;BME280;46330;50.822;7.126;2023-04-27T03:58:19;101255.50;;;6.05;73.42
9141;BME280;46330;50.822;7.126;2023-04-27T04:01:05;101269.38;;;6.06;73.83
9141;BME280;46330;50.822;7.126;2023-04-27T04:03:36;101271.06;;;6.02;74.37
9141;BME280;46330;50.822;7.126;2023-04-27T04:06:06;101274.38;;;5.89;74.63
9141;BME280;46330;50.822;7.126;2023-04-27T04:08:34;101272.59;;;5.85;77.28
9141;BME280;46330;50.822;7.126;2023-04-27T04:11:03;101285.63;;;5.86;78.18
9141;BME280;46330;50.822;7.126;2023-04-27T04:13:34;101273.44;;;5.84;76.44
9141;BME280;46330;50.822;7.126;2023-04-27T04:16:03;101280.31;;;5.79;76.37
9141;BME280;46330;50.822;7.126;2023-04-27T04:18:32;101282.03;;;5.75;76.93
9141;BME280;46330;50.822;7.126;2023-04-27T04:21:00;101288.91;;;5.72;79.07
9141;BME280;46330;50.822;7.126;2023-04-27T04:23:28;101289.75;;;5.69;79.00
9141;BME280;46330;50.822;7.126;2023-04-27T04:25:56;101289.75;;;5.71;78.73
9141;BME280;46330;50.822;7.126;2023-04-27T04:28:28;101290.56;;;5.67;79.77
9141;BME280;46330;50.822;7.126;2023-04-27T04:30:59;101298.34;;;5.65;79.61
9141;BME280;46330;50.822;7.126;2023-04-27T04:33:27;101293.97;;;5.60;78.86
9141;BME280;46330;50.822;7.126;2023-04-27T04:35:56;101300.06;;;5.65;79.13
9141;BME280;46330;50.822;7.126;2023-04-27T04:38:24;101287.09;;;5.63;79.59
9141;BME280;46330;50.822;7.126;2023-04-27T04:40:52;101288.81;;;5.64;79.69
9141;BME280;46330;50.822;7.126;2023-04-27T04:43:20;101284.53;;;5.66;78.85
9141;BME280;46330;50.822;7.126;2023-04-27T04:45:48;101292.31;;;5.66;79.38
9141;BME280;46330;50.822;7.126;2023-04-27T04:48:17;101294.00;;;5.64;79.76
9141;BME280;46330;50.822;7.126;2023-04-27T04:50:46;101300.97;;;5.70;79.75
9141;BME280;46330;50.822;7.126;2023-04-27T04:53:14;101298.41;;;5.71;79.97
9141;BME280;46330;50.822;7.126;2023-04-27T04:55:41;101305.38;;;5.75;78.65
9141;BME280;46330;50.822;7.126;2023-04-27T04:58:09;101305.38;;;5.75;79.03
9141;BME280;46330;50.822;7.126;2023-04-27T05:00:37;101309.81;;;5.85;79.72
9141;BME280;46330;50.822;7.126;2023-04-27T05:03:05;101304.63;;;5.85;80.12
9141;BME280;46330;50.822;7.126;2023-04-27T05:05:35;101305.56;;;5.92;79.78
9141;BME280;46330;50.822;7.126;2023-04-27T05:08:03;101316.91;;;6.02;79.45
9141;BME280;46330;50.822;7.126;2023-04-27T05:10:31;101316.28;;;6.24;80.02
9141;BME280;46330;50.822;7.126;2023-04-27T05:12:59;101311.09;;;6.25;73.72
9141;BME280;46330;50.822;7.126;2023-04-27T05:15:27;101321.75;;;6.57;76.25
9141;BME280;46330;50.822;7.126;2023-04-27T05:17:55;101314.06;;;6.69;73.20
9141;BME280;46330;50.822;7.126;2023-04-27T05:20:22;101323.88;;;7.10;70.70
9141;BME280;46330;50.822;7.126;2023-04-27T05:22:52;101323.94;;;7.26;68.99
9141;BME280;46330;50.822;7.126;2023-04-27T05:25:20;101312.63;;;7.18;68.18
9141;BME280;46330;50.822;7.126;2023-04-27T05:27:48;101316.09;;;7.17;67.83
9141;BME280;46330;50.822;7.126;2023-04-27T05:30:16;101323.00;;;7.14;68.50
9141;BME280;46330;50.822;7.126;2023-04-27T05:32:44;101321.38;;;7.28;68.48
9141;BME280;46330;50.822;7.126;2023-04-27T05:35:12;101331.00;;;7.50;68.10
9141;BME280;46330;50.822;7.126;2023-04-27T05:37:39;101326.78;;;7.85;67.40
9141;BME280;46330;50.822;7.126;2023-04-27T05:40:09;101332.75;;;7.52;66.91
9141;BME280;46330;50.822;7.126;2023-04-27T05:42:38;101344.03;;;7.53;66.16
9141;BME280;46330;50.822;7.126;2023-04-27T05:45:07;101340.63;;;7.72;64.44
9141;BME280;46330;50.822;7.126;2023-04-27T05:47:35;101346.69;;;7.67;65.37
9141;BME280;46330;50.822;7.126;2023-04-27T05:50:03;101347.63;;;7.91;62.35
9141;BME280;46330;50.822;7.126;2023-04-27T05:52:31;101352.97;;;8.28;62.97
9141;BME280;46330;50.822;7.126;2023-04-27T05:55:01;101362.56;;;8.62;61.72
9141;BME280;46330;50.822;7.126;2023-04-27T05:57:31;101359.94;;;8.36;60.76
9141;BME280;46330;50.822;7.126;2023-04-27T05:59:59;101358.22;;;8.46;60.04
9141;BME280;46330;50.822;7.126;2023-04-27T06:02:37;101357.31;;;8.95;58.35
9141;BME280;46330;50.822;7.126;2023-04-27T06:05:06;101350.34;;;9.08;58.75
9141;BME280;46330;50.822;7.126;2023-04-27T06:07:34;101353.78;;;9.25;58.43
9141;BME280;46330;50.822;7.126;2023-04-27T06:10:03;101348.50;;;9.48;56.94
9141;BME280;46330;50.822;7.126;2023-04-27T06:12:33;101351.75;;;9.97;55.71
9141;BME280;46330;50.822;7.126;2023-04-27T06:15:01;101356.03;;;10.10;54.48
9141;BME280;46330;50.822;7.126;2023-04-27T06:17:34;101351.81;;;9.88;55.75
9141;BME280;46330;50.822;7.126;2023-04-27T06:20:02;101355.28;;;9.91;56.61
9141;BME280;46330;50.822;7.126;2023-04-27T06:22:32;101357.81;;;10.14;55.72
9141;BME280;46330;50.822;7.126;2023-04-27T06:25:00;101364.34;;;10.74;52.39
9141;BME280;46330;50.822;7.126;2023-04-27T06:27:28;101363.03;;;11.19;51.30
9141;BME280;46330;50.822;7.126;2023-04-27T06:29:58;101365.63;;;11.23;49.94
9141;BME280;46330;50.822;7.126;2023-04-27T06:32:26;101365.91;;;11.77;49.48
9141;BME280;46330;50.822;7.126;2023-04-27T06:34:54;101369.22;;;11.90;50.59
9141;BME280;46330;50.822;7.126;2023-04-27T06:37:22;101369.84;;;12.08;48.54
9141;BME280;46330;50.822;7.126;2023-04-27T06:39:50;101360.59;;;12.43;48.43
9141;BME280;46330;50.822;7.126;2023-04-27T06:42:18;101362.94;;;12.62;47.21
9141;BME280;46330;50.822;7.126;2023-04-27T06:44:46;101359.22;;;12.75;45.97
9141;BME280;46330;50.822;7.126;2023-04-27T06:47:15;101358.19;;;12.84;45.10
9141;BME280;46330;50.822;7.126;2023-04-27T06:49:43;101363.31;;;12.36;47.41
9141;BME280;46330;50.822;7.126;2023-04-27T06:52:14;101363.22;;;12.44;46.26
9141;BME280;46330;50.822;7.126;2023-04-27T06:54:42;101361.91;;;12.14;46.71
9141;BME280;46330;50.822;7.126;2023-04-27T06:57:10;101363.22;;;12.98;45.66
9141;BME280;46330;50.822;7.126;2023-04-27T06:59:38;101355.72;;;12.76;44.36
9141;BME280;46330;50.822;7.126;2023-04-27T07:02:06;101352.41;;;13.14;44.69
9141;BME280;46330;50.822;7.126;2023-04-27T07:04:35;101353.06;;;12.21;45.79
9141;BME280;46330;50.822;7.126;2023-04-27T07:07:03;101350.88;;;13.48;43.72
9141;BME280;46330;50.822;7.126;2023-04-27T07:09:31;101353.84;;;13.32;43.47
9141;BME280;46330;50.822;7.126;2023-04-27T07:11:59;101344.72;;;13.92;42.75
9141;BME280;46330;50.822;7.126;2023-04-27T07:14:28;101346.63;;;13.43;43.11
9141;BME280;46330;50.822;7.126;2023-04-27T07:16:57;101352.91;;;13.79;41.79
9141;BME280;46330;50.822;7.126;2023-04-27T07:19:25;101347.84;;;14.48;41.74
9141;BME280;46330;50.822;7.126;2023-04-27T07:21:54;101355.41;;;13.85;41.25
9141;BME280;46330;50.822;7.126;2023-04-27T07:24:22;101354.56;;;14.23;41.53
9141;BME280;46330;50.822;7.126;2023-04-27T07:26:50;101349.50;;;13.74;41.27
9141;BME280;46330;50.822;7.126;2023-04-27T07:29:17;101352.69;;;13.48;42.79
9141;BME280;46330;50.822;7.126;2023-04-27T07:31:53;101347.66;;;13.79;41.77
9141;BME280;46330;50.822;7.126;2023-04-27T07:34:21;101347.66;;;13.77;41.31
9141;BME280;46330;50.822;7.126;2023-04-27T07:36:50;101341.59;;;13.31;41.79
9141;BME280;46330;50.822;7.126;2023-04-27T07:39:21;101342.47;;;13.76;42.26
9141;BME280;46330;50.822;7.126;2023-04-27T07:41:49;101350.81;;;13.52;41.51
9141;BME280;46330;50.822;7.126;2023-04-27T07:44:18;101346.38;;;13.57;41.85
9141;BME280;46330;50.822;7.126;2023-04-27T07:46:46;101350.53;;;14.82;39.29
9141;BME280;46330;50.822;7.126;2023-04-27T07:49:15;101341.28;;;14.99;39.33
9141;BME280;46330;50.822;7.126;2023-04-27T07:51:43;101344.44;;;14.05;40.65
9141;BME280;46330;50.822;7.126;2023-04-27T07:54:11;101343.31;;;14.16;39.51
9141;BME280;46330;50.822;7.126;2023-04-27T07:56:41;101336.47;;;15.47;38.60
9141;BME280;46330;50.822;7.126;2023-04-27T07:59:09;101335.63;;;15.78;37.56
9141;BME280;46330;50.822;7.126;2023-04-27T08:01:38;101330.69;;;15.66;35.83
9141;BME280;46330;50.822;7.126;2023-04-27T08:04:06;101332.91;;;14.84;38.18
9141;BME280;46330;50.822;7.126;2023-04-27T08:06:34;101324.31;;;15.73;36.67
9141;BME280;46330;50.822;7.126;2023-04-27T08:09:03;101345.13;;;14.86;37.30
9141;BME280;46330;50.822;7.126;2023-04-27T08:11:31;101329.03;;;15.29;37.86
9141;BME280;46330;50.822;7.126;2023-04-27T08:14:00;101334.91;;;15.08;37.01
9141;BME280;46330;50.822;7.126;2023-04-27T08:16:28;101326.78;;;14.83;36.85
9141;BME280;46330;50.822;7.126;2023-04-27T08:18:57;101325.00;;;16.08;35.10
9141;BME280;46330;50.822;7.126;2023-04-27T08:21:26;101325.38;;;15.96;34.89
9141;BME280;46330;50.822;7.126;2023-04-27T08:23:55;101317.97;;;17.14;34.65
9141;BME280;46330;50.822;7.126;2023-04-27T08:26:23;101321.38;;;16.39;34.11
9141;BME280;46330;50.822;7.126;2023-04-27T08:28:52;101320.50;;;16.92;32.86
9141;BME280;46330;50.822;7.126;2023-04-27T08:31:23;101314.66;;;17.57;31.99
9141;BME280;46330;50.822;7.126;2023-04-27T08:33:52;101315.00;;;17.23;32.71
9141;BME280;46330;50.822;7.126;2023-04-27T08:36:20;101307.53;;;16.85;32.57
9141;BME280;46330;50.822;7.126;2023-04-27T08:38:50;101318.97;;;17.83;32.69
9141;BME280;46330;50.822;7.126;2023-04-27T08:41:18;101314.81;;;17.99;30.95
9141;BME280;46330;50.822;7.126;2023-04-27T08:43:50;101315.19;;;17.90;31.16
9141;BME280;46330;50.822;7.126;2023-04-27T08:46:19;101308.34;;;19.52;30.42
9141;BME280;46330;50.822;7.126;2023-04-27T08:48:50;101303.41;;;19.04;29.87
9141;BME280;46330;50.822;7.126;2023-04-27T08:51:19;101306.38;;;18.76;30.67
9141;BME280;46330;50.822;7.126;2023-04-27T08:53:49;101303.31;;;17.29;31.19
9141;BME280;46330;50.822;7.126;2023-04-27T08:56:17;101295.38;;;18.65;30.89
9141;BME280;46330;50.822;7.126;2023-04-27T08:58:45;101307.28;;;19.93;27.49
9141;BME280;46330;50.822;7.126;2023-04-27T09:01:14;101305.13;;;20.01;27.80
9141;BME280;46330;50.822;7.126;2023-04-27T09:03:42;101301.25;;;19.71;28.26
9141;BME280;46330;50.822;7.126;2023-04-27T09:06:14;101298.56;;;20.80;28.49
9141;BME280;46330;50.822;7.126;2023-04-27T09:08:43;101296.75;;;20.46;28.20
9141;BME280;46330;50.822;7.126;2023-04-27T09:11:12;101291.94;;;20.71;29.11
9141;BME280;46330;50.822;7.126;2023-04-27T09:13:42;101296.91;;;20.24;28.65
9141;BME280;46330;50.822;7.126;2023-04-27T09:16:11;101294.13;;;19.53;28.01
9141;BME280;46330;50.822;7.126;2023-04-27T09:18:41;101297.78;;;19.11;29.90
9141;BME280;46330;50.822;7.126;2023-04-27T09:21:10;101301.59;;;18.84;29.70
9141;BME280;46330;50.822;7.126;2023-04-27T09:23:39;101292.44;;;19.31;28.02
9141;BME280;46330;50.822;7.126;2023-04-27T09:26:07;101287.75;;;20.49;28.22
9141;BME280;46330;50.822;7.126;2023-04-27T09:28:37;101281.63;;;21.65;27.91
9141;BME280;46330;50.822;7.126;2023-04-27T09:31:06;101278.81;;;19.39;28.99
9141;BME280;46330;50.822;7.126;2023-04-27T09:33:35;101287.81;;;20.11;28.18
9141;BME280;46330;50.822;7.126;2023-04-27T09:36:04;101285.97;;;20.83;27.98
9141;BME280;46330;50.822;7.126;2023-04-27T09:38:33;101278.28;;;20.07;28.17
9141;BME280;46330;50.822;7.126;2023-04-27T09:41:02;101285.81;;;21.04;27.85
9141;BME280;46330;50.822;7.126;2023-04-27T09:43:31;101281.22;;;20.73;26.90
9141;BME280;46330;50.822;7.126;2023-04-27T09:45:59;101291.94;;;21.71;26.57
9141;BME280;46330;50.822;7.126;2023-04-27T09:48:27;101283.25;;;21.68;25.94
9141;BME280;46330;50.822;7.126;2023-04-27T09:50:55;101269.81;;;23.07;25.99
9141;BME280;46330;50.822;7.126;2023-04-27T09:53:26;101260.66;;;20.76;27.89
9141;BME280;46330;50.822;7.126;2023-04-27T09:56:08;101271.19;;;19.89;29.78
9141;BME280;46330;50.822;7.126;2023-04-27T09:58:58;101271.59;;;20.17;29.32
9141;BME280;46330;50.822;7.126;2023-04-27T10:01:35;101266.88;;;20.92;29.29
9141;BME280;46330;50.822;7.126;2023-04-27T10:04:17;101268.53;;;21.29;28.56
9141;BME280;46330;50.822;7.126;2023-04-27T10:06:57;101268.19;;;19.59;29.71
9141;BME280;46330;50.822;7.126;2023-04-27T10:09:26;101258.63;;;19.74;29.01
9141;BME280;46330;50.822;7.126;2023-04-27T10:12:13;101256.88;;;20.29;28.81
9141;BME280;46330;50.822;7.126;2023-04-27T10:14:48;101257.53;;;19.41;29.45
9141;BME280;46330;50.822;7.126;2023-04-27T10:17:16;101252.84;;;20.20;29.48
9141;BME280;46330;50.822;7.126;2023-04-27T10:19:55;101253.78;;;19.06;30.96
9141;BME280;46330;50.822;7.126;2023-04-27T10:22:36;101241.41;;;20.37;30.03
9141;BME280;46330;50.822;7.126;2023-04-27T10:25:13;101248.34;;;18.48;29.96
9141;BME280;46330;50.822;7.126;2023-04-27T10:27:47;101241.41;;;20.01;29.56
9141;BME280;46330;50.822;7.126;2023-04-27T10:30:18;101242.97;;;20.58;28.61
9141;BME280;46330;50.822;7.126;2023-04-27T10:32:51;101237.34;;;20.47;28.90
9141;BME280;46330;50.822;7.126;2023-04-27T10:35:21;101238.97;;;21.01;27.22
9141;BME280;46330;50.822;7.126;2023-04-27T10:37:50;101236.47;;;19.56;28.86
9141;BME280;46330;50.822;7.126;2023-04-27T10:40:19;101237.09;;;21.36;28.10
9141;BME280;46330;50.822;7.126;2023-04-27T10:42:49;101232.03;;;20.81;28.14
9141;BME280;46330;50.822;7.126;2023-04-27T10:45:27;101228.38;;;20.67;28.31
9141;BME280;46330;50.822;7.126;2023-04-27T10:47:59;101219.44;;;20.51;28.00
9141;BME280;46330;50.822;7.126;2023-04-27T10:50:28;101219.16;;;19.85;30.42
9141;BME280;46330;50.822;7.126;2023-04-27T10:53:03;101221.88;;;19.83;30.40
9141;BME280;46330;50.822;7.126;2023-04-27T10:55:33;101214.03;;;20.52;27.60
9141;BME280;46330;50.822;7.126;2023-04-27T10:58:03;101220.22;;;20.70;28.30
9141;BME280;46330;50.822;7.126;2023-04-27T11:00:35;101216.13;;;21.30;27.66
9141;BME280;46330;50.822;7.126;2023-04-27T11:03:12;101211.56;;;21.16;28.86
9141;BME280;46330;50.822;7.126;2023-04-27T11:05:42;101208.44;;;21.72;29.13
9141;BME280;46330;50.822;7.126;2023-04-27T11:08:12;101212.28;;;22.14;28.42
9141;BME280;46330;50.822;7.126;2023-04-27T11:10:42;101220.63;;;21.45;27.82
9141;BME280;46330;50.822;7.126;2023-04-27T11:13:14;101204.06;;;22.03;26.00
9141;BME280;46330;50.822;7.126;2023-04-27T11:15:44;101207.38;;;22.22;25.49
9141;BME280;46330;50.822;7.126;2023-04-27T11:18:13;101201.69;;;21.98;27.80
9141;BME280;46330;50.822;7.126;2023-04-27T11:20:43;101210.81;;;21.45;29.27
9141;BME280;46330;50.822;7.126;2023-04-27T11:23:21;101208.47;;;20.74;28.01
9141;BME280;46330;50.822;7.126;2023-04-27T11:25:50;101203.53;;;21.80;28.08
9141;BME280;46330;50.822;7.126;2023-04-27T11:28:20;101194.06;;;20.95;27.25
9141;BME280;46330;50.822;7.126;2023-04-27T11:30:54;101192.38;;;21.74;26.10
9141;BME280;46330;50.822;7.126;2023-04-27T11:33:22;101196.00;;;21.57;25.52
9141;BME280;46330;50.822;7.126;2023-04-27T11:35:50;101187.66;;;21.63;25.99
9141;BME280;46330;50.822;7.126;2023-04-27T11:38:19;101194.81;;;21.94;27.69
9141;BME280;46330;50.822;7.126;2023-04-27T11:40:58;101188.94;;;19.88;29.90
9141;BME280;46330;50.822;7.126;2023-04-27T11:43:28;101186.28;;;20.41;28.14
9141;BME280;46330;50.822;7.126;2023-04-27T11:45:56;101189.19;;;21.83;27.53
9141;BME280;46330;50.822;7.126;2023-04-27T11:48:26;101184.00;;;20.84;27.24
9141;BME280;46330;50.822;7.126;2023-04-27T11:50:56;101172.97;;;21.72;26.77
9141;BME280;46330;50.822;7.126;2023-04-27T11:53:29;101181.88;;;21.55;28.19
9141;BME280;46330;50.822;7.126;2023-04-27T11:55:58;101175.44;;;21.75;26.92
9141;BME280;46330;50.822;7.126;2023-04-27T11:58:29;101163.44;;;22.43;26.76
9141;BME280;46330;50.822;7.126;2023-04-27T12:00:56;101165.25;;;23.15;26.33
9141;BME280;46330;50.822;7.126;2023-04-27T12:03:24;101158.78;;;23.19;27.03
9141;BME280;46330;50.822;7.126;2023-04-27T12:05:53;101165.31;;;20.86;27.67
9141;BME280;46330;50.822;7.126;2023-04-27T12:08:22;101164.63;;;22.23;26.65
9141;BME280;46330;50.822;7.126;2023-04-27T12:10:50;101167.38;;;20.97;28.58
9141;BME280;46330;50.822;7.126;2023-04-27T12:13:19;101151.66;;;20.59;29.71
9141;BME280;46330;50.822;7.126;2023-04-27T12:15:48;101151.25;;;19.98;29.29
9141;BME280;46330;50.822;7.126;2023-04-27T12:18:16;101157.22;;;20.20;30.02
9141;BME280;46330;50.822;7.126;2023-04-27T12:20:44;101149.22;;;20.72;28.51
9141;BME280;46330;50.822;7.126;2023-04-27T12:23:12;101152.94;;;21.33;29.09
9141;BME280;46330;50.822;7.126;2023-04-27T12:25:40;101153.22;;;20.96;28.78
9141;BME280;46330;50.822;7.126;2023-04-27T12:28:09;101148.81;;;20.29;28.77
9141;BME280;46330;50.822;7.126;2023-04-27T12:30:37;101150.75;;;19.73;29.79
9141;BME280;46330;50.822;7.126;2023-04-27T12:33:07;101145.47;;;20.59;29.33
9141;BME280;46330;50.822;7.126;2023-04-27T12:35:37;101137.50;;;20.59;28.27
9141;BME280;46330;50.822;7.126;2023-04-27T12:38:04;101141.56;;;20.66;27.25
9141;BME280;46330;50.822;7.126;2023-04-27T12:40:32;101130.03;;;21.31;27.49
9141;BME280;46330;50.822;7.126;2023-04-27T12:43:00;101130.94;;;22.22;27.42
9141;BME280;46330;50.822;7.126;2023-04-27T12:45:28;101135.56;;;22.48;26.72
9141;BME280;46330;50.822;7.126;2023-04-27T12:47:56;101127.09;;;21.67;26.89
9141;BME280;46330;50.822;7.126;2023-04-27T12:50:31;101129.66;;;22.14;27.40
9141;BME280;46330;50.822;7.126;2023-04-27T12:52:59;101141.03;;;20.92;29.11
9141;BME280;46330;50.822;7.126;2023-04-27T12:55:27;101141.28;;;20.55;29.32
9141;BME280;46330;50.822;7.126;2023-04-27T12:57:59;101141.44;;;20.84;30.74
9141;BME280;46330;50.822;7.126;2023-04-27T13:00:27;101135.28;;;21.17;29.13
9141;BME280;46330;50.822;7.126;2023-04-27T13:02:56;101133.25;;;20.72;28.75
9141;BME280;46330;50.822;7.126;2023-04-27T13:05:24;101134.06;;;19.88;29.38
9141;BME280;46330;50.822;7.126;2023-04-27T13:07:56;101130.16;;;20.12;28.76
9141;BME280;46330;50.822;7.126;2023-04-27T13:10:24;101124.22;;;20.59;28.54
9141;BME280;46330;50.822;7.126;2023-04-27T13:12:53;101127.47;;;19.42;31.50
9141;BME280;46330;50.822;7.126;2023-04-27T13:15:21;101129.94;;;20.17;30.20
9141;BME280;46330;50.822;7.126;2023-04-27T13:17:49;101125.31;;;20.03;29.27